createdAt,value
2023-03-16T00:02:13.808Z,-0.86
2023-03-16T00:05:17.762Z,-0.87
2023-03-16T00:08:21.924Z,-0.88
2023-03-16T00:11:27.031Z,-0.90
2023-03-16T00:14:32.056Z,-0.90
2023-03-16T00:17:36.172Z,-0.91
2023-03-16T00:20:40.240Z,-0.92
2023-03-16T00:23:43.991Z,-0.92
2023-03-16T00:26:49.836Z,-0.94
2023-03-16T00:29:55.942Z,-0.95
2023-03-16T00:33:02.219Z,-0.95
2023-03-16T00:36:09.629Z,-0.98
2023-03-16T00:39:15.029Z,-0.98
2023-03-16T00:42:21.424Z,-1.00
2023-03-16T00:45:25.484Z,-1.01
2023-03-16T00:48:28.934Z,-1.01
2023-03-16T00:51:34.045Z,-1.03
2023-03-16T00:54:37.723Z,-1.03
2023-03-16T00:57:43.435Z,-1.04
2023-03-16T01:00:49.717Z,-1.06
2023-03-16T01:03:54.847Z,-1.05
2023-03-16T01:06:58.470Z,-1.07
2023-03-16T01:10:02.509Z,-1.06
2023-03-16T01:13:07.771Z,-1.07
2023-03-16T01:16:13.052Z,-1.07
2023-03-16T01:19:16.964Z,-1.07
2023-03-16T01:22:21.624Z,-1.08
2023-03-16T01:25:25.504Z,-1.08
2023-03-16T01:28:35.301Z,-1.09
2023-03-16T01:31:39.282Z,-1.10
2023-03-16T01:34:44.183Z,-1.12
2023-03-16T01:37:50.385Z,-1.12
2023-03-16T01:40:59.891Z,-1.12
2023-03-16T01:44:05.452Z,-1.13
2023-03-16T01:47:12.179Z,-1.12
2023-03-16T01:50:17.859Z,-1.13
2023-03-16T01:53:24.704Z,-1.15
2023-03-16T01:56:37.252Z,-1.14
2023-03-16T01:59:49.754Z,-1.13
2023-03-16T02:02:59.582Z,-1.16
2023-03-16T02:06:19.670Z,-1.16
2023-03-16T02:09:30.957Z,-1.17
2023-03-16T02:12:35.308Z,-1.20
2023-03-16T02:15:42.009Z,-1.23
2023-03-16T02:18:47.644Z,-1.23
2023-03-16T02:22:02.784Z,-1.24
2023-03-16T02:25:08.677Z,-1.26
2023-03-16T02:28:26.787Z,-1.26
2023-03-16T02:31:34.339Z,-1.28
2023-03-16T02:34:40.109Z,-1.30
2023-03-16T02:37:44.509Z,-1.33
2023-03-16T02:41:01.066Z,-1.36
2023-03-16T02:44:16.193Z,-1.39
2023-03-16T02:47:35.814Z,-1.39
2023-03-16T02:50:48.217Z,-1.40
2023-03-16T02:53:52.047Z,-1.40
2023-03-16T02:56:57.208Z,-1.39
2023-03-16T03:00:02.328Z,-1.41
2023-03-16T03:03:09.896Z,-1.44
2023-03-16T03:06:14.782Z,-1.41
2023-03-16T03:09:19.625Z,-1.42
2023-03-16T03:12:25.374Z,-1.40
2023-03-16T03:15:29.546Z,-1.39
2023-03-16T03:18:46.735Z,-1.41
2023-03-16T03:21:51.566Z,-1.36
2023-03-16T03:24:55.664Z,-1.37
2023-03-16T03:28:00.894Z,-1.35
2023-03-16T03:31:04.741Z,-1.35
2023-03-16T03:34:10.254Z,-1.34
2023-03-16T03:37:13.899Z,-1.34
2023-03-16T03:40:21.382Z,-1.35
2023-03-16T03:43:32.116Z,-1.33
2023-03-16T03:46:36.777Z,-1.32
2023-03-16T03:49:41.776Z,-1.33
2023-03-16T03:52:45.945Z,-1.32
2023-03-16T03:55:49.922Z,-1.32
2023-03-16T03:58:54.449Z,-1.32
2023-03-16T04:02:17.252Z,-1.34
2023-03-16T04:05:28.868Z,-1.37
2023-03-16T04:08:32.445Z,-1.37
2023-03-16T04:11:36.457Z,-1.39
2023-03-16T04:14:40.784Z,-1.41
2023-03-16T04:17:47.025Z,-1.42
2023-03-16T04:20:53.195Z,-1.45
2023-03-16T04:23:59.308Z,-1.48
2023-03-16T04:27:12.029Z,-1.48
2023-03-16T04:30:17.624Z,-1.49
2023-03-16T04:33:26.059Z,-1.51
2023-03-16T04:36:33.175Z,-1.50
2023-03-16T04:39:38.958Z,-1.51
2023-03-16T04:42:44.452Z,-1.54
2023-03-16T04:45:52.094Z,-1.55
2023-03-16T04:48:58.554Z,-1.55
2023-03-16T04:52:06.252Z,-1.57
2023-03-16T04:55:11.394Z,-1.56
2023-03-16T04:58:15.017Z,-1.58
2023-03-16T05:01:20.018Z,-1.56
2023-03-16T05:04:25.333Z,-1.56
2023-03-16T05:07:31.778Z,-1.56
2023-03-16T05:10:36.435Z,-1.55
2023-03-16T05:13:40.798Z,-1.56
2023-03-16T05:16:44.890Z,-1.62
2023-03-16T05:19:49.495Z,-1.69
2023-03-16T05:22:55.818Z,-1.72
2023-03-16T05:26:07.753Z,-1.69
2023-03-16T05:29:13.690Z,-1.68
2023-03-16T05:32:18.350Z,-1.67
2023-03-16T05:35:24.251Z,-1.65
2023-03-16T05:38:33.137Z,-1.58
2023-03-16T05:41:37.097Z,-1.53
2023-03-16T05:44:48.103Z,-1.47
2023-03-16T05:47:56.840Z,-1.34
2023-03-16T05:51:01.631Z,-1.26
2023-03-16T05:54:08.718Z,-1.18
2023-03-16T05:57:20.770Z,-1.10
2023-03-16T06:00:30.044Z,-1.03
2023-03-16T06:03:45.202Z,-0.99
2023-03-16T06:06:54.899Z,-0.98
2023-03-16T06:10:06.137Z,-0.97
2023-03-16T06:13:10.514Z,-0.94
2023-03-16T06:16:16.936Z,-0.91
2023-03-16T06:19:21.700Z,-0.89
2023-03-16T06:22:31.615Z,-0.83
2023-03-16T06:25:40.159Z,-0.76
2023-03-16T06:28:46.442Z,-0.72
2023-03-16T06:31:51.468Z,-0.65
2023-03-16T06:34:56.726Z,-0.58
2023-03-16T06:38:00.262Z,-0.49
2023-03-16T06:41:22.101Z,-0.42
2023-03-16T06:44:26.703Z,-0.34
2023-03-16T06:47:40.422Z,-0.25
2023-03-16T06:50:46.280Z,-0.22
2023-03-16T06:53:51.851Z,-0.13
2023-03-16T06:57:00.166Z,-0.10
2023-03-16T07:00:07.577Z,-0.04
2023-03-16T07:03:11.298Z,-0.01
2023-03-16T07:06:36.095Z,0.05
2023-03-16T07:09:41.853Z,0.13
2023-03-16T07:12:47.924Z,0.19
2023-03-16T07:15:55.109Z,0.28
2023-03-16T07:19:00.489Z,0.34
2023-03-16T07:22:05.190Z,0.42
2023-03-16T07:25:14.094Z,0.51
2023-03-16T07:28:24.868Z,0.55
2023-03-16T07:31:30.155Z,0.61
2023-03-16T07:34:39.743Z,0.67
2023-03-16T07:37:44.685Z,0.73
2023-03-16T07:40:49.091Z,0.80
2023-03-16T07:43:59.572Z,0.88
2023-03-16T07:47:07.141Z,0.95
2023-03-16T07:50:13.572Z,1.04
2023-03-16T07:53:21.015Z,1.13
2023-03-16T07:56:33.702Z,1.21
2023-03-16T07:59:45.979Z,1.26
2023-03-16T08:02:54.279Z,1.34
2023-03-16T08:06:02.440Z,1.36
2023-03-16T08:09:06.398Z,1.45
2023-03-16T08:12:14.894Z,1.57
2023-03-16T08:15:21.772Z,1.65
2023-03-16T08:18:29.884Z,1.76
2023-03-16T08:21:35.144Z,1.86
2023-03-16T08:24:44.585Z,1.99
2023-03-16T08:27:50.358Z,2.20
2023-03-16T08:30:58.482Z,2.40
2023-03-16T08:34:30.381Z,2.59
2023-03-16T08:37:34.896Z,2.74
2023-03-16T08:40:38.826Z,2.77
2023-03-16T08:43:44.742Z,2.86
2023-03-16T08:46:52.079Z,3.00
2023-03-16T08:49:57.551Z,3.21
2023-03-16T08:53:01.601Z,3.30
2023-03-16T08:56:08.652Z,3.33
2023-03-16T08:59:27.086Z,3.43
2023-03-16T09:02:38.480Z,3.54
2023-03-16T09:05:42.657Z,3.62
2023-03-16T09:08:47.790Z,3.69
2023-03-16T09:11:52.490Z,3.90
2023-03-16T09:14:56.814Z,4.18
2023-03-16T09:18:03.890Z,4.34
2023-03-16T09:21:10.387Z,4.35
2023-03-16T09:24:17.784Z,4.40
2023-03-16T09:27:27.395Z,4.56
2023-03-16T09:30:32.754Z,4.71
2023-03-16T09:33:38.179Z,4.77
2023-03-16T09:36:42.096Z,4.79
2023-03-16T09:39:47.447Z,4.91
2023-03-16T09:43:12.717Z,5.06
2023-03-16T09:46:26.031Z,5.00
2023-03-16T09:49:39.215Z,4.99
2023-03-16T09:52:56.148Z,5.15
2023-03-16T09:56:07.001Z,5.15
2023-03-16T09:59:15.314Z,5.07
2023-03-16T10:02:48.617Z,5.03
2023-03-16T10:06:03.829Z,5.08
2023-03-16T10:09:27.438Z,5.13
2023-03-16T10:12:41.413Z,5.27
2023-03-16T10:15:47.052Z,5.52
2023-03-16T10:19:00.699Z,5.63
2023-03-16T10:22:20.724Z,5.77
2023-03-16T10:25:35.557Z,5.89
2023-03-16T10:28:43.628Z,6.01
2023-03-16T10:31:48.829Z,6.07
2023-03-16T10:35:02.408Z,6.29
2023-03-16T10:38:30.559Z,6.42
2023-03-16T10:41:37.882Z,6.38
2023-03-16T10:44:42.843Z,6.49
2023-03-16T10:47:47.134Z,6.53
2023-03-16T10:50:57.092Z,6.56
2023-03-16T10:54:12.000Z,6.59
2023-03-16T10:57:25.350Z,6.41
2023-03-16T11:00:36.462Z,6.40
2023-03-16T11:03:42.768Z,6.56
2023-03-16T11:06:54.751Z,6.57
2023-03-16T11:10:01.849Z,6.62
2023-03-16T11:13:14.917Z,7.07
2023-03-16T11:16:37.009Z,7.68
2023-03-16T11:19:53.286Z,7.80
2023-03-16T11:22:58.415Z,7.71
2023-03-16T11:26:12.556Z,7.63
2023-03-16T11:29:28.506Z,7.70
2023-03-16T11:32:38.313Z,7.62
2023-03-16T11:35:59.344Z,7.56
2023-03-16T11:39:18.536Z,7.53
2023-03-16T11:42:35.453Z,7.76
2023-03-16T11:45:48.666Z,8.45
2023-03-16T11:49:12.684Z,8.86
2023-03-16T11:52:29.904Z,8.74
2023-03-16T11:55:51.974Z,8.38
2023-03-16T11:59:27.315Z,8.07
2023-03-16T12:02:49.093Z,7.98
2023-03-16T12:06:13.541Z,8.20
2023-03-16T12:10:02.609Z,8.76
2023-03-16T12:13:30.895Z,9.30
2023-03-16T12:16:49.845Z,9.85
2023-03-16T12:20:00.427Z,10.19
2023-03-16T12:23:14.829Z,9.98
2023-03-16T12:26:20.616Z,9.45
2023-03-16T12:29:37.107Z,9.02
2023-03-16T12:32:53.602Z,10.15
2023-03-16T12:36:36.882Z,13.16
2023-03-16T12:39:57.738Z,18.13
2023-03-16T12:43:18.856Z,21.68
2023-03-16T12:46:33.930Z,23.80
2023-03-16T12:49:40.211Z,25.47
2023-03-16T12:52:47.734Z,27.51
2023-03-16T12:55:51.913Z,29.60
2023-03-16T12:59:00.242Z,30.24
2023-03-16T13:02:06.693Z,29.98
2023-03-16T13:05:17.135Z,25.91
2023-03-16T13:08:23.417Z,22.67
2023-03-16T13:11:30.024Z,19.66
2023-03-16T13:14:42.583Z,21.78
2023-03-16T13:17:49.023Z,25.25
2023-03-16T13:21:01.739Z,27.56
2023-03-16T13:24:29.903Z,27.73
2023-03-16T13:27:35.243Z,27.00
2023-03-16T13:30:48.656Z,23.26
2023-03-16T13:33:59.912Z,23.02
2023-03-16T13:37:14.859Z,23.80
2023-03-16T13:40:24.592Z,25.15
2023-03-16T13:43:33.098Z,26.39
2023-03-16T13:46:37.592Z,27.40
2023-03-16T13:49:45.594Z,27.50
2023-03-16T13:53:02.889Z,27.86
2023-03-16T13:56:08.931Z,27.91
2023-03-16T13:59:15.708Z,27.47
2023-03-16T14:02:23.248Z,28.45
2023-03-16T14:05:31.919Z,28.03
2023-03-16T14:08:37.838Z,28.62
2023-03-16T14:11:42.955Z,29.27
2023-03-16T14:14:51.473Z,30.12
2023-03-16T14:18:13.513Z,29.90
2023-03-16T14:21:20.664Z,25.88
2023-03-16T14:24:33.823Z,25.49
2023-03-16T14:27:47.636Z,26.75
2023-03-16T14:30:54.774Z,27.73
2023-03-16T14:34:08.817Z,28.23
2023-03-16T14:37:15.848Z,28.15
2023-03-16T14:40:28.589Z,27.54
2023-03-16T14:43:36.544Z,27.06
2023-03-16T14:46:42.106Z,23.82
2023-03-16T14:49:46.486Z,20.13
2023-03-16T14:52:51.692Z,17.27
2023-03-16T14:55:57.783Z,15.29
2023-03-16T14:59:01.822Z,13.89
2023-03-16T15:02:20.622Z,12.66
2023-03-16T15:05:36.338Z,11.67
2023-03-16T15:08:50.823Z,11.41
2023-03-16T15:11:57.975Z,11.23
2023-03-16T15:15:18.165Z,12.61
2023-03-16T15:18:21.860Z,12.22
2023-03-16T15:21:33.628Z,11.64
2023-03-16T15:24:37.440Z,10.88
2023-03-16T15:27:42.806Z,10.24
2023-03-16T15:30:49.386Z,9.78
2023-03-16T15:33:53.402Z,9.49
2023-03-16T15:36:57.236Z,11.67
2023-03-16T15:40:01.399Z,14.49
2023-03-16T15:43:12.595Z,16.12
2023-03-16T15:46:16.957Z,16.50
2023-03-16T15:49:20.689Z,16.37
2023-03-16T15:52:33.208Z,15.89
2023-03-16T15:55:41.239Z,16.22
2023-03-16T15:58:48.344Z,16.46
2023-03-16T16:01:52.977Z,14.89
2023-03-16T16:04:57.330Z,13.36
2023-03-16T16:08:01.793Z,12.65
2023-03-16T16:11:15.680Z,13.26
2023-03-16T16:14:26.613Z,13.12
2023-03-16T16:17:48.030Z,13.28
2023-03-16T16:20:54.882Z,13.31
2023-03-16T16:23:59.123Z,12.71
2023-03-16T16:27:03.004Z,11.90
2023-03-16T16:30:21.302Z,10.93
2023-03-16T16:33:27.833Z,10.13
2023-03-16T16:36:32.498Z,9.40
2023-03-16T16:39:36.499Z,8.75
2023-03-16T16:42:41.488Z,8.24
2023-03-16T16:45:47.443Z,7.80
2023-03-16T16:48:54.361Z,7.44
2023-03-16T16:51:58.788Z,7.07
2023-03-16T16:55:02.767Z,6.74
2023-03-16T16:58:12.353Z,6.44
2023-03-16T17:01:29.715Z,6.19
2023-03-16T17:04:33.668Z,5.97
2023-03-16T17:07:37.990Z,5.79
2023-03-16T17:10:41.709Z,5.61
2023-03-16T17:13:46.927Z,5.45
2023-03-16T17:16:52.616Z,5.22
2023-03-16T17:19:56.602Z,4.99
2023-03-16T17:23:00.439Z,4.79
2023-03-16T17:26:14.962Z,4.60
2023-03-16T17:29:24.520Z,4.43
2023-03-16T17:32:30.273Z,4.27
2023-03-16T17:35:33.927Z,4.06
2023-03-16T17:38:38.095Z,3.95
2023-03-16T17:41:41.909Z,3.86
2023-03-16T17:44:49.124Z,3.71
2023-03-16T17:47:56.018Z,3.58
2023-03-16T17:50:59.944Z,3.45
2023-03-16T17:54:04.338Z,3.33
2023-03-16T17:57:18.292Z,3.23
2023-03-16T18:00:28.750Z,3.10
2023-03-16T18:03:34.951Z,3.04
2023-03-16T18:06:39.056Z,2.96
2023-03-16T18:09:43.511Z,2.88
2023-03-16T18:12:51.723Z,2.80
2023-03-16T18:15:57.378Z,2.75
2023-03-16T18:19:21.361Z,2.69
2023-03-16T18:22:26.396Z,2.64
2023-03-16T18:25:34.783Z,2.66
2023-03-16T18:28:38.947Z,2.60
2023-03-16T18:31:44.169Z,2.54
2023-03-16T18:34:50.814Z,2.46
2023-03-16T18:37:55.997Z,2.38
2023-03-16T18:41:01.976Z,2.35
2023-03-16T18:44:19.641Z,2.29
2023-03-16T18:47:31.401Z,2.24
2023-03-16T18:50:38.037Z,2.15
2023-03-16T18:53:42.326Z,2.03
2023-03-16T18:56:46.101Z,1.93
2023-03-16T18:59:51.052Z,1.84
2023-03-16T19:02:59.595Z,1.74
2023-03-16T19:06:06.240Z,1.71
2023-03-16T19:09:20.660Z,1.59
2023-03-16T19:12:24.617Z,1.42
2023-03-16T19:15:30.816Z,1.36
2023-03-16T19:18:42.026Z,1.26
2023-03-16T19:21:47.455Z,1.18
2023-03-16T19:24:55.849Z,1.12
2023-03-16T19:28:02.143Z,1.07
2023-03-16T19:31:15.740Z,1.03
2023-03-16T19:34:20.489Z,0.98
2023-03-16T19:37:26.737Z,0.94
2023-03-16T19:40:31.578Z,0.93
2023-03-16T19:43:35.599Z,0.93
2023-03-16T19:46:39.550Z,0.90
2023-03-16T19:49:43.527Z,0.88
2023-03-16T19:52:49.163Z,0.84
2023-03-16T19:55:55.034Z,0.76
2023-03-16T19:59:00.161Z,0.61
2023-03-16T20:02:12.209Z,0.42
2023-03-16T20:05:23.226Z,0.26
2023-03-16T20:08:30.296Z,0.18
2023-03-16T20:11:34.601Z,0.17
2023-03-16T20:14:38.468Z,0.20
2023-03-16T20:17:43.288Z,0.24
2023-03-16T20:20:47.987Z,0.24
2023-03-16T20:23:55.001Z,0.24
2023-03-16T20:26:59.031Z,0.21
2023-03-16T20:30:03.059Z,0.17
2023-03-16T20:33:07.142Z,0.06
2023-03-16T20:36:13.052Z,-0.07
2023-03-16T20:39:18.660Z,-0.11
2023-03-16T20:42:27.252Z,-0.17
2023-03-16T20:45:31.821Z,-0.27
2023-03-16T20:48:35.691Z,-0.35
2023-03-16T20:51:39.668Z,-0.35
2023-03-16T20:54:45.054Z,-0.34
2023-03-16T20:57:52.040Z,-0.36
2023-03-16T21:00:57.738Z,-0.37
2023-03-16T21:04:01.932Z,-0.40
2023-03-16T21:07:08.365Z,-0.44
2023-03-16T21:10:18.154Z,-0.41
2023-03-16T21:13:30.995Z,-0.39
2023-03-16T21:16:36.187Z,-0.41
2023-03-16T21:19:40.311Z,-0.39
2023-03-16T21:22:45.779Z,-0.41
2023-03-16T21:25:54.927Z,-0.39
2023-03-16T21:29:02.582Z,-0.39
2023-03-16T21:32:21.499Z,-0.42
2023-03-16T21:35:33.227Z,-0.51
2023-03-16T21:38:36.975Z,-0.51
2023-03-16T21:41:42.279Z,-0.50
2023-03-16T21:44:46.476Z,-0.56
2023-03-16T21:47:50.835Z,-0.69
2023-03-16T21:50:55.942Z,-0.81
2023-03-16T21:54:01.583Z,-0.91
2023-03-16T21:57:16.627Z,-0.99
2023-03-16T22:00:28.900Z,-1.00
2023-03-16T22:03:50.412Z,-0.94
2023-03-16T22:06:55.370Z,-0.89
2023-03-16T22:09:59.285Z,-0.87
2023-03-16T22:13:05.144Z,-0.90
2023-03-16T22:16:16.458Z,-0.90
2023-03-16T22:19:21.054Z,-0.93
2023-03-16T22:22:24.897Z,-0.98
2023-03-16T22:25:29.005Z,-0.97
2023-03-16T22:28:34.410Z,-0.95
2023-03-16T22:31:39.808Z,-0.96
2023-03-16T22:34:47.542Z,-0.97
2023-03-16T22:37:51.628Z,-1.02
2023-03-16T22:40:55.584Z,-1.11
2023-03-16T22:44:01.705Z,-1.16
2023-03-16T22:47:16.422Z,-1.15
2023-03-16T22:50:22.262Z,-1.09
2023-03-16T22:53:30.570Z,-1.06
2023-03-16T22:56:36.332Z,-1.07
2023-03-16T22:59:42.311Z,-1.10
2023-03-16T23:02:46.213Z,-1.22
2023-03-16T23:05:51.796Z,-1.24
2023-03-16T23:08:57.421Z,-1.25
2023-03-16T23:12:03.272Z,-1.29
2023-03-16T23:15:19.252Z,-1.39
2023-03-16T23:18:26.740Z,-1.37
2023-03-16T23:21:31.877Z,-1.41
2023-03-16T23:24:37.324Z,-1.47
2023-03-16T23:27:41.774Z,-1.45
2023-03-16T23:30:47.590Z,-1.37
2023-03-16T23:33:51.666Z,-1.31
2023-03-16T23:36:55.383Z,-1.29
2023-03-16T23:39:59.262Z,-1.30
2023-03-16T23:43:03.425Z,-1.27
2023-03-16T23:46:11.051Z,-1.34
2023-03-16T23:49:22.808Z,-1.46
2023-03-16T23:52:27.154Z,-1.51
2023-03-16T23:55:31.423Z,-1.51
2023-03-16T23:58:35.499Z,-1.50
